createdAt,value
2023-05-03T00:01:37.315Z,99.90
2023-05-03T00:04:06.234Z,99.90
2023-05-03T00:06:34.544Z,99.90
2023-05-03T00:09:04.176Z,99.90
2023-05-03T00:11:32.303Z,99.90
2023-05-03T00:14:00.351Z,99.90
2023-05-03T00:16:28.439Z,99.90
2023-05-03T00:18:56.473Z,99.90
2023-05-03T00:21:24.547Z,99.90
2023-05-03T00:23:52.718Z,99.90
2023-05-03T00:26:22.591Z,99.90
2023-05-03T00:28:50.756Z,99.90
2023-05-03T00:31:19.641Z,99.90
2023-05-03T00:33:47.767Z,99.90
2023-05-03T00:36:16.616Z,99.90
2023-05-03T00:38:45.212Z,99.90
2023-05-03T00:41:13.898Z,99.90
2023-05-03T00:43:43.273Z,99.90
2023-05-03T00:46:17.296Z,99.90
2023-05-03T00:48:46.068Z,99.90
2023-05-03T00:51:15.529Z,99.90
2023-05-03T00:53:44.215Z,99.90
2023-05-03T00:56:12.408Z,99.90
2023-05-03T00:58:40.932Z,99.90
2023-05-03T01:01:10.552Z,99.90
2023-05-03T01:03:41.825Z,99.90
2023-05-03T01:06:14.943Z,99.90
2023-05-03T01:08:48.533Z,99.90
2023-05-03T01:11:24.341Z,99.90
2023-05-03T01:13:56.830Z,99.90
2023-05-03T01:16:32.963Z,99.90
2023-05-03T01:19:02.912Z,99.90
2023-05-03T01:21:33.997Z,99.90
2023-05-03T01:24:05.900Z,99.90
2023-05-03T01:26:35.320Z,99.90
2023-05-03T01:29:04.030Z,99.90
2023-05-03T01:31:37.015Z,99.90
2023-05-03T01:34:14.357Z,99.90
2023-05-03T01:36:44.932Z,99.90
2023-05-03T01:39:18.012Z,99.90
2023-05-03T01:41:48.311Z,99.90
2023-05-03T01:44:17.335Z,99.90
2023-05-03T01:46:45.619Z,99.90
2023-05-03T01:49:14.132Z,99.90
2023-05-03T01:51:42.319Z,99.90
2023-05-03T01:54:10.430Z,99.90
2023-05-03T01:56:39.093Z,99.90
2023-05-03T01:59:08.507Z,99.90
2023-05-03T02:01:36.640Z,99.90
2023-05-03T02:04:04.798Z,99.90
2023-05-03T02:06:32.888Z,99.90
2023-05-03T02:09:01.123Z,99.90
2023-05-03T02:11:29.112Z,99.90
2023-05-03T02:13:57.143Z,99.90
2023-05-03T02:16:27.736Z,99.90
2023-05-03T02:18:59.686Z,99.90
2023-05-03T02:21:27.964Z,99.90
2023-05-03T02:23:56.091Z,99.90
2023-05-03T02:26:24.213Z,99.90
2023-05-03T02:28:52.270Z,99.90
2023-05-03T02:31:20.397Z,99.90
2023-05-03T02:33:49.882Z,99.90
2023-05-03T02:36:17.945Z,99.90
2023-05-03T02:38:45.982Z,99.90
2023-05-03T02:41:14.334Z,99.90
2023-05-03T02:43:42.470Z,99.90
2023-05-03T02:46:10.515Z,99.90
2023-05-03T02:48:38.621Z,99.90
2023-05-03T02:51:08.578Z,99.90
2023-05-03T02:53:36.684Z,99.90
2023-05-03T02:56:04.847Z,99.90
2023-05-03T02:58:32.899Z,99.90
2023-05-03T03:01:01.218Z,99.90
2023-05-03T03:03:29.314Z,99.90
2023-05-03T03:05:57.465Z,99.90
2023-05-03T03:08:26.923Z,99.90
2023-05-03T03:10:55.026Z,99.90
2023-05-03T03:13:23.065Z,99.90
2023-05-03T03:15:51.114Z,99.90
2023-05-03T03:18:19.803Z,99.90
2023-05-03T03:20:48.049Z,99.90
2023-05-03T03:23:16.192Z,99.90
2023-05-03T03:25:45.658Z,99.90
2023-05-03T03:28:13.688Z,99.90
2023-05-03T03:30:41.740Z,99.90
2023-05-03T03:33:09.914Z,99.90
2023-05-03T03:35:38.414Z,99.90
2023-05-03T03:38:06.709Z,99.90
2023-05-03T03:40:34.769Z,99.90
2023-05-03T03:43:04.220Z,99.90
2023-05-03T03:45:32.235Z,99.90
2023-05-03T03:48:00.570Z,99.90
2023-05-03T03:50:28.685Z,99.90
2023-05-03T03:52:56.740Z,99.90
2023-05-03T03:55:24.798Z,99.90
2023-05-03T03:57:52.860Z,99.90
2023-05-03T04:00:22.439Z,99.90
2023-05-03T04:02:50.753Z,99.90
2023-05-03T04:05:19.842Z,99.90
2023-05-03T04:07:48.292Z,99.90
2023-05-03T04:10:17.189Z,99.90
2023-05-03T04:12:45.972Z,99.90
2023-05-03T04:15:15.481Z,99.90
2023-05-03T04:17:46.500Z,99.90
2023-05-03T04:20:15.474Z,99.90
2023-05-03T04:22:44.039Z,99.90
2023-05-03T04:25:14.486Z,99.90
2023-05-03T04:27:43.031Z,99.90
2023-05-03T04:30:15.388Z,99.90
2023-05-03T04:32:47.632Z,99.90
2023-05-03T04:35:16.292Z,99.90
2023-05-03T04:37:44.648Z,99.90
2023-05-03T04:40:13.492Z,99.90
2023-05-03T04:42:42.486Z,99.90
2023-05-03T04:45:12.110Z,99.90
2023-05-03T04:47:40.867Z,99.90
2023-05-03T04:50:12.468Z,99.90
2023-05-03T04:52:41.189Z,99.90
2023-05-03T04:55:10.487Z,99.90
2023-05-03T04:57:39.022Z,99.90
2023-05-03T05:00:11.409Z,99.90
2023-05-03T05:02:39.905Z,99.90
2023-05-03T05:05:11.369Z,99.90
2023-05-03T05:07:40.137Z,99.90
2023-05-03T05:10:10.303Z,99.90
2023-05-03T05:12:39.206Z,99.90
2023-05-03T05:15:09.498Z,99.90
2023-05-03T05:17:38.127Z,99.90
2023-05-03T05:20:12.474Z,99.90
2023-05-03T05:22:42.921Z,99.90
2023-05-03T05:25:11.826Z,99.90
2023-05-03T05:27:40.584Z,99.90
2023-05-03T05:30:10.187Z,99.90
2023-05-03T05:32:38.751Z,99.90
2023-05-03T05:35:07.766Z,99.90
2023-05-03T05:37:36.328Z,99.90
2023-05-03T05:40:08.780Z,99.90
2023-05-03T05:42:37.793Z,99.90
2023-05-03T05:45:08.075Z,99.90
2023-05-03T05:47:36.600Z,99.90
2023-05-03T05:50:14.921Z,99.90
2023-05-03T05:52:46.158Z,99.90
2023-05-03T05:55:16.005Z,99.90
2023-05-03T05:57:44.271Z,99.90
2023-05-03T06:00:15.787Z,99.90
2023-05-03T06:02:44.525Z,99.90
2023-05-03T06:05:13.156Z,99.90
2023-05-03T06:07:41.464Z,99.90
2023-05-03T06:10:11.002Z,99.90
2023-05-03T06:12:40.985Z,99.90
2023-05-03T06:15:09.966Z,99.90
2023-05-03T06:17:38.953Z,99.90
2023-05-03T06:20:12.153Z,99.90
2023-05-03T06:22:40.767Z,99.90
2023-05-03T06:25:10.050Z,99.90
2023-05-03T06:27:39.024Z,99.90
2023-05-03T06:30:13.079Z,99.90
2023-05-03T06:32:42.559Z,99.90
2023-05-03T06:35:12.715Z,99.90
2023-05-03T06:37:41.058Z,99.90
2023-05-03T06:40:11.478Z,99.90
2023-05-03T06:42:40.366Z,99.90
2023-05-03T06:45:11.469Z,99.90
2023-05-03T06:47:42.801Z,99.90
2023-05-03T06:50:12.227Z,99.90
2023-05-03T06:52:41.398Z,99.90
2023-05-03T06:55:12.175Z,99.90
2023-05-03T06:57:42.567Z,99.90
2023-05-03T07:00:14.200Z,99.90
2023-05-03T07:02:42.440Z,99.90
2023-05-03T07:05:13.182Z,99.90
2023-05-03T07:07:41.923Z,99.90
2023-05-03T07:10:10.901Z,99.90
2023-05-03T07:12:39.235Z,99.90
2023-05-03T07:15:08.570Z,99.90
2023-05-03T07:17:38.366Z,99.90
2023-05-03T07:20:09.192Z,99.90
2023-05-03T07:22:37.711Z,99.90
2023-05-03T07:25:08.272Z,99.90
2023-05-03T07:27:37.061Z,99.90
2023-05-03T07:30:06.784Z,99.90
2023-05-03T07:32:35.399Z,99.90
2023-05-03T07:35:08.028Z,99.90
2023-05-03T07:37:38.956Z,99.90
2023-05-03T07:40:08.488Z,99.90
2023-05-03T07:42:37.538Z,99.90
2023-05-03T07:45:06.872Z,99.90
2023-05-03T07:47:38.236Z,99.90
2023-05-03T07:50:09.871Z,99.90
2023-05-03T07:52:38.390Z,99.90
2023-05-03T07:55:09.018Z,99.90
2023-05-03T07:57:37.564Z,99.90
2023-05-03T08:00:08.439Z,99.90
2023-05-03T08:02:36.973Z,99.90
2023-05-03T08:05:08.329Z,99.90
2023-05-03T08:07:37.327Z,99.90
2023-05-03T08:10:06.738Z,99.90
2023-05-03T08:12:35.233Z,99.40
2023-05-03T08:15:07.261Z,99.90
2023-05-03T08:17:41.930Z,99.90
2023-05-03T08:20:13.942Z,99.80
2023-05-03T08:22:42.916Z,98.90
2023-05-03T08:25:12.506Z,98.30
2023-05-03T08:27:40.748Z,98.50
2023-05-03T08:30:11.077Z,98.20
2023-05-03T08:32:39.505Z,97.00
2023-05-03T08:35:09.030Z,97.40
2023-05-03T08:37:43.431Z,96.70
2023-05-03T08:40:14.375Z,97.00
2023-05-03T08:42:44.101Z,96.70
2023-05-03T08:45:14.927Z,97.00
2023-05-03T08:47:45.078Z,96.00
2023-05-03T08:50:14.905Z,95.40
2023-05-03T08:52:45.919Z,96.10
2023-05-03T08:55:14.497Z,95.70
2023-05-03T08:57:42.884Z,95.70
2023-05-03T09:00:15.764Z,95.40
2023-05-03T09:02:44.392Z,95.50
2023-05-03T09:05:35.206Z,94.30
2023-05-03T09:08:06.818Z,94.60
2023-05-03T09:10:37.110Z,95.60
2023-05-03T09:13:06.628Z,94.30
2023-05-03T09:15:35.564Z,94.30
2023-05-03T09:18:11.786Z,95.00
2023-05-03T09:20:41.963Z,94.30
2023-05-03T09:23:12.350Z,95.20
2023-05-03T09:25:46.208Z,95.00
2023-05-03T09:28:17.452Z,93.50
2023-05-03T09:30:46.661Z,93.90
2023-05-03T09:33:20.524Z,93.00
2023-05-03T09:35:58.848Z,93.40
2023-05-03T09:38:41.219Z,94.10
2023-05-03T09:41:10.218Z,93.00
2023-05-03T09:43:50.068Z,92.20
2023-05-03T09:46:18.574Z,92.20
2023-05-03T09:48:47.035Z,92.70
2023-05-03T09:51:16.145Z,92.80
2023-05-03T09:53:46.240Z,92.80
2023-05-03T09:56:15.058Z,93.20
2023-05-03T09:58:44.457Z,91.80
2023-05-03T10:01:13.615Z,92.70
2023-05-03T10:03:44.226Z,91.80
2023-05-03T10:06:27.123Z,91.30
2023-05-03T10:09:02.200Z,90.70
2023-05-03T10:11:30.956Z,91.00
2023-05-03T10:13:59.771Z,90.90
2023-05-03T10:16:32.500Z,88.90
2023-05-03T10:19:08.247Z,90.90
2023-05-03T10:21:50.191Z,90.00
2023-05-03T10:24:20.732Z,90.90
2023-05-03T10:26:52.825Z,91.40
2023-05-03T10:29:49.229Z,90.30
2023-05-03T10:32:34.518Z,90.20
2023-05-03T10:35:06.276Z,90.60
2023-05-03T10:37:38.231Z,91.00
2023-05-03T10:40:14.110Z,88.50
2023-05-03T10:42:45.782Z,89.60
2023-05-03T10:45:28.619Z,90.50
2023-05-03T10:48:16.688Z,90.20
2023-05-03T10:50:45.611Z,87.40
2023-05-03T10:53:37.470Z,89.80
2023-05-03T10:56:09.611Z,89.80
2023-05-03T10:58:39.487Z,87.70
2023-05-03T11:01:09.854Z,87.80
2023-05-03T11:03:56.383Z,87.90
2023-05-03T11:06:32.862Z,88.10
2023-05-03T11:09:01.898Z,87.30
2023-05-03T11:11:32.310Z,85.10
2023-05-03T11:14:03.341Z,86.00
2023-05-03T11:16:32.117Z,87.40
2023-05-03T11:19:03.950Z,86.20
2023-05-03T11:21:33.790Z,85.00
2023-05-03T11:24:03.335Z,86.70
2023-05-03T11:26:38.711Z,85.40
2023-05-03T11:29:07.245Z,86.90
2023-05-03T11:31:36.010Z,84.60
2023-05-03T11:34:04.738Z,85.50
2023-05-03T11:36:33.060Z,85.20
2023-05-03T11:39:02.060Z,87.60
2023-05-03T11:41:30.559Z,87.60
2023-05-03T11:44:12.089Z,85.30
2023-05-03T11:46:44.430Z,84.90
2023-05-03T11:49:19.644Z,84.40
2023-05-03T11:51:51.714Z,86.60
2023-05-03T11:54:27.468Z,86.00
2023-05-03T11:56:59.436Z,84.50
2023-05-03T11:59:40.874Z,83.10
2023-05-03T12:02:13.743Z,84.40
2023-05-03T12:04:46.640Z,83.50
2023-05-03T12:07:18.866Z,82.30
2023-05-03T12:10:03.415Z,81.90
2023-05-03T12:12:41.508Z,80.70
2023-05-03T12:15:16.366Z,81.50
2023-05-03T12:17:48.787Z,80.80
2023-05-03T12:22:57.827Z,80.10
2023-05-03T12:25:30.921Z,82.70
2023-05-03T12:28:18.653Z,80.20
2023-05-03T12:30:52.695Z,80.00
2023-05-03T12:33:22.967Z,81.10
2023-05-03T12:35:54.237Z,80.30
2023-05-03T12:38:25.061Z,82.40
2023-05-03T12:40:56.186Z,81.50
2023-05-03T12:43:25.081Z,80.90
2023-05-03T12:46:23.865Z,79.30
2023-05-03T12:48:46.407Z,81.00
2023-05-03T12:53:47.878Z,79.80
2023-05-03T12:56:17.373Z,79.00
2023-05-03T13:02:17.303Z,78.60
2023-05-03T13:06:45.209Z,78.00
2023-05-03T13:09:20.781Z,79.80
2023-05-03T13:11:51.247Z,77.40
2023-05-03T13:14:22.131Z,77.80
2023-05-03T13:16:52.159Z,77.80
2023-05-03T13:19:20.913Z,76.50
2023-05-03T13:21:49.928Z,78.10
2023-05-03T13:24:18.401Z,77.70
2023-05-03T13:26:47.132Z,78.00
2023-05-03T13:29:15.251Z,79.50
2023-05-03T13:31:43.444Z,76.10
2023-05-03T13:34:12.985Z,75.30
2023-05-03T13:36:42.128Z,76.60
2023-05-03T13:39:10.880Z,78.90
2023-05-03T13:41:41.119Z,78.10
2023-05-03T13:44:10.103Z,76.50
2023-05-03T13:46:38.769Z,78.60
2023-05-03T13:49:07.548Z,75.20
2023-05-03T13:51:38.725Z,74.40
2023-05-03T13:54:08.559Z,77.50
2023-05-03T13:56:37.593Z,76.40
2023-05-03T13:59:08.840Z,77.30
2023-05-03T14:01:38.243Z,75.30
2023-05-03T14:04:07.119Z,77.80
2023-05-03T14:06:40.300Z,75.90
2023-05-03T14:09:09.657Z,77.20
2023-05-03T14:11:39.252Z,77.00
2023-05-03T14:14:07.734Z,77.30
2023-05-03T14:16:41.275Z,77.80
2023-05-03T14:19:12.110Z,76.10
2023-05-03T14:21:43.298Z,78.10
2023-05-03T14:24:11.830Z,75.40
2023-05-03T14:26:40.108Z,76.00
2023-05-03T14:29:08.963Z,74.90
2023-05-03T14:31:37.721Z,75.90
2023-05-03T14:34:08.088Z,76.60
2023-05-03T14:36:39.035Z,76.80
2023-05-03T14:39:09.314Z,76.20
2023-05-03T14:41:37.871Z,75.70
2023-05-03T14:44:06.929Z,75.90
2023-05-03T14:46:35.212Z,74.80
2023-05-03T14:49:03.516Z,76.80
2023-05-03T14:51:32.528Z,76.00
2023-05-03T14:54:01.209Z,75.60
2023-05-03T14:56:33.380Z,76.00
2023-05-03T14:59:02.737Z,76.40
2023-05-03T15:01:31.019Z,76.40
2023-05-03T15:03:59.543Z,76.90
2023-05-03T15:06:30.882Z,76.40
2023-05-03T15:09:00.252Z,75.40
2023-05-03T15:11:28.961Z,74.70
2023-05-03T15:13:59.065Z,76.30
2023-05-03T15:16:27.998Z,74.70
2023-05-03T15:18:56.366Z,76.10
2023-05-03T15:21:25.180Z,75.80
2023-05-03T15:23:54.294Z,75.70
2023-05-03T15:26:24.499Z,75.80
2023-05-03T15:28:53.407Z,74.40
2023-05-03T15:31:22.957Z,75.50
2023-05-03T15:33:51.586Z,75.20
2023-05-03T15:36:20.689Z,75.70
2023-05-03T15:38:50.246Z,75.70
2023-05-03T15:41:18.943Z,76.20
2023-05-03T15:43:47.803Z,76.80
2023-05-03T15:46:16.399Z,77.20
2023-05-03T15:48:46.769Z,74.70
2023-05-03T15:51:15.299Z,76.00
2023-05-03T15:53:43.850Z,76.40
2023-05-03T15:56:12.301Z,76.10
2023-05-03T15:58:40.794Z,76.20
2023-05-03T16:01:09.312Z,76.90
2023-05-03T16:03:37.836Z,77.40
2023-05-03T16:06:11.199Z,76.30
2023-05-03T16:08:40.514Z,75.80
2023-05-03T16:11:09.978Z,77.20
2023-05-03T16:13:38.579Z,76.80
2023-05-03T16:16:07.442Z,76.40
2023-05-03T16:18:36.588Z,75.60
2023-05-03T16:21:05.665Z,76.30
2023-05-03T16:23:35.852Z,75.00
2023-05-03T16:26:13.320Z,77.00
2023-05-03T16:28:42.913Z,75.40
2023-05-03T16:31:11.513Z,76.50
2023-05-03T16:33:40.117Z,75.70
2023-05-03T16:36:08.731Z,77.40
2023-05-03T16:38:38.793Z,76.40
2023-05-03T16:41:07.728Z,76.20
2023-05-03T16:43:36.217Z,76.40
2023-05-03T16:46:05.299Z,76.20
2023-05-03T16:48:35.038Z,75.00
2023-05-03T16:51:04.019Z,76.30
2023-05-03T16:53:32.662Z,76.10
2023-05-03T16:56:02.874Z,76.30
2023-05-03T16:58:31.212Z,76.10
2023-05-03T17:00:59.443Z,76.50
2023-05-03T17:03:28.112Z,76.20
2023-05-03T17:05:56.801Z,76.40
2023-05-03T17:08:25.326Z,76.20
2023-05-03T17:10:54.511Z,76.30
2023-05-03T17:13:24.278Z,76.30
2023-05-03T17:15:53.190Z,77.90
2023-05-03T17:18:21.683Z,76.30
2023-05-03T17:24:38.373Z,77.50
2023-05-03T17:27:09.863Z,78.00
2023-05-03T17:29:41.413Z,77.40
2023-05-03T17:32:10.415Z,77.70
2023-05-03T17:34:38.837Z,78.10
2023-05-03T17:37:07.405Z,78.50
2023-05-03T17:39:36.432Z,78.90
2023-05-03T17:42:05.117Z,79.50
2023-05-03T17:44:33.729Z,79.50
2023-05-03T17:47:03.816Z,78.70
2023-05-03T17:49:34.524Z,79.80
2023-05-03T17:52:04.223Z,79.30
2023-05-03T17:57:12.853Z,79.30
2023-05-03T17:59:41.513Z,80.50
2023-05-03T18:02:14.125Z,80.10
2023-05-03T18:04:42.969Z,80.40
2023-05-03T18:07:12.156Z,79.70
2023-05-03T18:09:40.868Z,81.00
2023-05-03T18:12:09.280Z,81.00
2023-05-03T18:14:38.481Z,80.50
2023-05-03T18:17:07.501Z,81.30
2023-05-03T18:19:37.273Z,80.90
2023-05-03T18:22:08.565Z,80.80
2023-05-03T18:24:37.330Z,81.50
2023-05-03T18:27:06.182Z,80.90
2023-05-03T18:29:37.407Z,80.90
2023-05-03T18:32:06.084Z,81.50
2023-05-03T18:34:37.523Z,82.00
2023-05-03T18:37:07.169Z,81.80
2023-05-03T18:39:36.188Z,81.70
2023-05-03T18:42:04.452Z,81.10
2023-05-03T18:44:32.998Z,82.20
2023-05-03T18:47:01.711Z,81.90
2023-05-03T18:49:30.273Z,81.30
2023-05-03T18:51:58.745Z,82.00
2023-05-03T18:54:28.668Z,82.30
2023-05-03T18:56:57.109Z,83.00
2023-05-03T18:59:25.400Z,83.00
2023-05-03T19:01:53.726Z,83.10
2023-05-03T19:04:22.048Z,83.70
2023-05-03T19:06:50.361Z,83.50
2023-05-03T19:09:18.861Z,83.90
2023-05-03T19:11:49.292Z,84.70
2023-05-03T19:14:18.060Z,83.80
2023-05-03T19:16:46.718Z,84.10
2023-05-03T19:19:15.669Z,84.20
2023-05-03T19:21:44.777Z,85.00
2023-05-03T19:24:16.900Z,85.30
2023-05-03T19:26:45.430Z,85.70
2023-05-03T19:29:15.989Z,85.60
2023-05-03T19:31:44.717Z,86.00
2023-05-03T19:34:13.282Z,86.90
2023-05-03T19:36:42.480Z,87.00
2023-05-03T19:39:13.319Z,87.50
2023-05-03T19:41:41.942Z,88.00
2023-05-03T19:44:10.326Z,88.80
2023-05-03T19:46:40.351Z,89.80
2023-05-03T19:49:08.690Z,89.90
2023-05-03T19:51:37.186Z,89.70
2023-05-03T19:54:05.729Z,89.50
2023-05-03T19:56:34.290Z,90.40
2023-05-03T19:59:02.395Z,90.20
2023-05-03T20:01:30.460Z,90.40
2023-05-03T20:04:00.880Z,90.50
2023-05-03T20:06:29.465Z,91.10
2023-05-03T20:08:58.204Z,91.60
2023-05-03T20:11:26.689Z,91.60
2023-05-03T20:13:56.006Z,91.90
2023-05-03T20:16:27.174Z,92.10
2023-05-03T20:18:55.517Z,92.10
2023-05-03T20:21:25.196Z,92.50
2023-05-03T20:23:53.587Z,92.90
2023-05-03T20:26:22.181Z,93.30
2023-05-03T20:28:53.150Z,93.80
2023-05-03T20:31:21.660Z,93.80
2023-05-03T20:33:50.129Z,93.90
2023-05-03T20:36:18.550Z,94.00
2023-05-03T20:38:48.483Z,94.20
2023-05-03T20:41:18.832Z,94.50
2023-05-03T20:43:47.440Z,94.60
2023-05-03T20:46:15.863Z,94.60
2023-05-03T20:48:44.268Z,94.90
2023-05-03T20:51:12.955Z,94.70
2023-05-03T20:53:41.144Z,94.90
2023-05-03T20:56:11.696Z,94.70
2023-05-03T20:58:40.058Z,94.80
2023-05-03T21:01:08.797Z,94.80
2023-05-03T21:03:37.517Z,95.10
2023-05-03T21:06:06.817Z,95.40
2023-05-03T21:08:36.283Z,96.00
2023-05-03T21:11:04.862Z,96.10
2023-05-03T21:13:36.113Z,96.60
2023-05-03T21:16:04.886Z,96.70
2023-05-03T21:18:33.050Z,96.80
2023-05-03T21:21:01.350Z,96.90
2023-05-03T21:23:29.906Z,96.70
2023-05-03T21:25:58.391Z,96.60
2023-05-03T21:28:26.527Z,96.70
2023-05-03T21:30:57.305Z,97.00
2023-05-03T21:33:25.509Z,97.10
2023-05-03T21:35:53.777Z,97.60
2023-05-03T21:38:22.477Z,97.70
2023-05-03T21:40:50.727Z,98.30
2023-05-03T21:43:20.146Z,98.00
2023-05-03T21:45:49.286Z,98.90
2023-05-03T21:48:19.286Z,99.20
2023-05-03T21:50:47.293Z,99.30
2023-05-03T21:53:15.449Z,99.70
2023-05-03T21:55:43.383Z,99.40
2023-05-03T21:58:11.406Z,99.80
2023-05-03T22:00:40.481Z,99.60
2023-05-03T22:03:08.904Z,99.60
2023-05-03T22:05:40.769Z,99.50
2023-05-03T22:08:09.836Z,99.90
2023-05-03T22:10:38.412Z,99.60
2023-05-03T22:13:06.637Z,99.40
2023-05-03T22:15:34.775Z,99.90
2023-05-03T22:18:02.845Z,99.90
2023-05-03T22:20:30.939Z,99.70
2023-05-03T22:23:00.338Z,99.30
2023-05-03T22:25:32.065Z,99.60
2023-05-03T22:28:00.776Z,99.40
2023-05-03T22:30:29.045Z,99.00
2023-05-03T22:32:57.086Z,99.00
2023-05-03T22:35:25.352Z,98.60
2023-05-03T22:37:53.393Z,98.80
2023-05-03T22:40:22.838Z,98.70
2023-05-03T22:42:50.907Z,99.00
2023-05-03T22:45:19.097Z,99.00
2023-05-03T22:47:47.156Z,98.80
2023-05-03T22:50:16.486Z,99.30
2023-05-03T22:52:45.187Z,99.30
2023-05-03T22:55:13.352Z,99.20
2023-05-03T22:57:42.963Z,99.10
2023-05-03T23:00:12.370Z,99.00
2023-05-03T23:02:40.660Z,99.10
2023-05-03T23:05:09.573Z,99.90
2023-05-03T23:07:37.721Z,99.90
2023-05-03T23:10:07.492Z,99.90
2023-05-03T23:12:35.969Z,99.90
2023-05-03T23:15:06.272Z,99.90
2023-05-03T23:17:34.987Z,99.90
2023-05-03T23:20:05.456Z,99.90
2023-05-03T23:22:33.915Z,99.90
2023-05-03T23:25:02.094Z,99.90
2023-05-03T23:27:30.252Z,99.90
2023-05-03T23:29:58.954Z,99.90
2023-05-03T23:32:28.941Z,99.90
2023-05-03T23:34:57.951Z,99.90
2023-05-03T23:37:25.945Z,99.90
2023-05-03T23:39:53.948Z,99.90
2023-05-03T23:42:22.317Z,99.90
2023-05-03T23:44:55.161Z,99.90
2023-05-03T23:47:24.240Z,99.90
2023-05-03T23:49:53.689Z,99.90
2023-05-03T23:52:21.713Z,99.90
2023-05-03T23:54:49.785Z,99.90
2023-05-03T23:57:17.953Z,99.90
2023-05-03T23:59:46.166Z,99.90
